createdAt,value
2017-09-24T00:00:51.258Z,11.10
2017-09-24T00:03:19.609Z,11.10
2017-09-24T00:05:47.151Z,11.00
2017-09-24T00:08:17.252Z,11.00
2017-09-24T00:10:44.816Z,11.00
2017-09-24T00:13:12.351Z,11.00
2017-09-24T00:15:39.888Z,11.10
2017-09-24T00:18:08.347Z,11.10
2017-09-24T00:20:35.888Z,11.10
2017-09-24T00:23:03.418Z,11.10
2017-09-24T00:25:31.422Z,11.00
2017-09-24T00:27:58.952Z,11.00
2017-09-24T00:30:26.488Z,11.00
2017-09-24T00:32:54.824Z,11.00
2017-09-24T00:35:22.359Z,11.00
2017-09-24T00:37:49.894Z,11.00
2017-09-24T00:40:17.469Z,11.00
2017-09-24T00:42:45.020Z,11.00
2017-09-24T00:45:12.552Z,11.10
2017-09-24T00:47:40.906Z,11.10
2017-09-24T00:50:08.446Z,11.10
2017-09-24T00:52:35.983Z,11.10
2017-09-24T00:55:03.551Z,11.10
2017-09-24T00:57:31.091Z,11.10
2017-09-24T00:59:58.626Z,11.00
2017-09-24T01:02:26.186Z,11.00
2017-09-24T01:04:53.718Z,11.00
2017-09-24T01:07:21.254Z,11.00
2017-09-24T01:09:48.840Z,11.10
2017-09-24T01:12:16.708Z,11.00
2017-09-24T01:14:44.238Z,11.00
2017-09-24T01:17:11.804Z,10.90
2017-09-24T01:19:39.339Z,10.90
2017-09-24T01:22:06.871Z,10.90
2017-09-24T01:24:34.452Z,11.00
2017-09-24T01:27:02.514Z,11.10
2017-09-24T01:29:30.814Z,11.00
2017-09-24T01:31:58.394Z,10.90
2017-09-24T01:34:26.692Z,11.00
2017-09-24T01:36:54.226Z,11.00
2017-09-24T01:39:21.803Z,11.10
2017-09-24T01:41:49.337Z,11.00
2017-09-24T01:44:16.874Z,11.10
2017-09-24T01:46:44.436Z,11.00
2017-09-24T01:49:13.668Z,11.00
2017-09-24T01:51:41.202Z,11.00
2017-09-24T01:54:09.064Z,11.00
2017-09-24T01:56:36.618Z,11.00
2017-09-24T01:59:04.157Z,11.00
2017-09-24T02:01:31.729Z,10.90
2017-09-24T02:03:59.259Z,10.90
2017-09-24T02:06:26.795Z,10.80
2017-09-24T02:08:54.363Z,10.80
2017-09-24T02:11:21.905Z,10.80
2017-09-24T02:13:49.437Z,10.70
2017-09-24T02:16:17.019Z,10.70
2017-09-24T02:18:44.563Z,10.70
2017-09-24T02:21:12.099Z,10.70
2017-09-24T02:23:39.663Z,10.70
2017-09-24T02:26:07.966Z,10.70
2017-09-24T02:28:36.084Z,10.70
2017-09-24T02:31:03.659Z,10.70
2017-09-24T02:33:31.191Z,10.70
2017-09-24T02:35:58.724Z,10.70
2017-09-24T02:38:26.327Z,10.80
2017-09-24T02:40:53.863Z,10.80
2017-09-24T02:43:21.391Z,10.80
2017-09-24T02:45:49.903Z,10.70
2017-09-24T02:48:17.443Z,10.70
2017-09-24T02:50:44.974Z,10.80
2017-09-24T02:53:12.539Z,10.80
2017-09-24T02:55:40.831Z,10.70
2017-09-24T02:58:08.376Z,10.80
2017-09-24T03:00:36.727Z,10.70
2017-09-24T03:03:04.267Z,10.60
2017-09-24T03:05:31.798Z,10.70
2017-09-24T03:07:59.373Z,10.60
2017-09-24T03:10:27.679Z,10.50
2017-09-24T03:12:55.215Z,10.50
2017-09-24T03:15:22.775Z,10.50
2017-09-24T03:17:50.324Z,10.50
2017-09-24T03:20:17.858Z,10.40
2017-09-24T03:22:45.451Z,10.40
2017-09-24T03:25:15.384Z,10.30
2017-09-24T03:27:42.931Z,10.30
2017-09-24T03:30:10.799Z,10.30
2017-09-24T03:32:39.096Z,10.20
2017-09-24T03:35:06.631Z,10.20
2017-09-24T03:37:34.215Z,10.10
2017-09-24T03:40:01.753Z,10.00
2017-09-24T03:42:29.299Z,10.00
2017-09-24T03:44:56.887Z,10.00
2017-09-24T03:47:24.420Z,9.90
2017-09-24T03:49:51.952Z,9.90
2017-09-24T03:52:19.506Z,9.90
2017-09-24T03:54:47.808Z,10.00
2017-09-24T03:57:16.456Z,10.00
2017-09-24T03:59:44.019Z,10.10
2017-09-24T04:02:11.547Z,10.00
2017-09-24T04:04:39.080Z,10.00
2017-09-24T04:07:06.671Z,10.00
2017-09-24T04:09:34.209Z,10.00
2017-09-24T04:12:01.743Z,9.90
2017-09-24T04:14:29.387Z,9.90
2017-09-24T04:16:56.972Z,9.90
2017-09-24T04:19:24.508Z,9.80
2017-09-24T04:21:52.077Z,9.80
2017-09-24T04:24:20.366Z,9.80
2017-09-24T04:26:48.664Z,9.80
2017-09-24T04:29:16.515Z,9.80
2017-09-24T04:31:44.308Z,9.90
2017-09-24T04:34:11.839Z,9.90
2017-09-24T04:36:39.411Z,9.80
2017-09-24T04:39:06.939Z,9.80
2017-09-24T04:41:34.463Z,9.80
2017-09-24T04:44:02.059Z,9.80
2017-09-24T04:46:29.591Z,9.80
2017-09-24T04:48:57.129Z,9.80
2017-09-24T04:51:24.712Z,9.80
2017-09-24T04:53:52.242Z,9.80
2017-09-24T04:56:19.776Z,9.90
2017-09-24T04:58:47.331Z,9.80
2017-09-24T05:01:16.547Z,9.80
2017-09-24T05:03:44.079Z,9.80
2017-09-24T05:06:12.406Z,9.70
2017-09-24T05:08:39.936Z,9.70
2017-09-24T05:11:07.472Z,9.70
2017-09-24T05:13:35.047Z,9.60
2017-09-24T05:16:02.579Z,9.60
2017-09-24T05:18:30.102Z,9.70
2017-09-24T05:20:57.651Z,9.70
2017-09-24T05:23:25.183Z,9.70
2017-09-24T05:25:52.712Z,9.70
2017-09-24T05:28:20.269Z,9.90
2017-09-24T05:30:47.798Z,9.90
2017-09-24T05:33:17.141Z,9.90
2017-09-24T05:35:44.747Z,9.90
2017-09-24T05:38:12.275Z,9.90
2017-09-24T05:40:39.817Z,9.90
2017-09-24T05:43:07.384Z,10.00
2017-09-24T05:45:35.686Z,10.10
2017-09-24T05:48:03.232Z,10.10
2017-09-24T05:50:31.767Z,10.30
2017-09-24T05:52:59.295Z,10.20
2017-09-24T05:55:26.831Z,10.30
2017-09-24T05:57:55.324Z,10.30
2017-09-24T06:00:23.614Z,10.40
2017-09-24T06:02:51.147Z,10.40
2017-09-24T06:05:19.470Z,10.50
2017-09-24T06:07:47.011Z,10.50
2017-09-24T06:10:16.321Z,10.70
2017-09-24T06:12:44.003Z,10.70
2017-09-24T06:15:16.523Z,10.80
2017-09-24T06:17:44.058Z,10.90
2017-09-24T06:20:11.635Z,11.00
2017-09-24T06:22:39.175Z,11.20
2017-09-24T06:25:06.816Z,11.10
2017-09-24T06:27:34.522Z,11.10
2017-09-24T06:30:02.857Z,11.20
2017-09-24T06:32:30.404Z,11.20
2017-09-24T06:34:58.603Z,11.40
2017-09-24T06:37:26.140Z,11.50
2017-09-24T06:39:53.680Z,11.60
2017-09-24T06:42:21.269Z,11.80
2017-09-24T06:44:48.799Z,12.00
2017-09-24T06:47:17.261Z,12.20
2017-09-24T06:49:44.851Z,12.20
2017-09-24T06:52:12.647Z,12.30
2017-09-24T06:54:40.238Z,12.40
2017-09-24T06:57:07.935Z,12.50
2017-09-24T06:59:35.692Z,12.70
2017-09-24T07:02:03.358Z,12.90
2017-09-24T07:04:31.111Z,13.20
2017-09-24T07:06:58.660Z,13.80
2017-09-24T07:09:26.968Z,16.90
2017-09-24T07:11:54.523Z,16.90
2017-09-24T07:14:22.051Z,18.60
2017-09-24T07:16:50.355Z,21.40
2017-09-24T07:19:17.932Z,21.30
2017-09-24T07:21:45.467Z,22.20
2017-09-24T07:24:25.519Z,23.00
2017-09-24T07:29:36.931Z,25.00
2017-09-24T07:32:04.470Z,25.60
2017-09-24T07:34:32.075Z,26.10
2017-09-24T07:37:00.187Z,26.60
2017-09-24T07:39:27.722Z,27.10
2017-09-24T07:41:55.279Z,27.30
2017-09-24T07:44:22.859Z,27.80
2017-09-24T07:46:50.390Z,28.40
2017-09-24T07:49:17.924Z,28.80
2017-09-24T07:51:45.495Z,28.60
2017-09-24T07:54:14.479Z,28.70
2017-09-24T07:56:42.012Z,28.70
2017-09-24T07:59:10.397Z,29.60
2017-09-24T08:01:37.963Z,29.60
2017-09-24T08:04:05.500Z,29.90
2017-09-24T08:06:33.087Z,30.20
2017-09-24T08:09:00.623Z,30.40
2017-09-24T08:11:28.263Z,30.30
2017-09-24T08:13:55.820Z,30.30
2017-09-24T08:16:23.359Z,30.00
2017-09-24T08:18:50.895Z,30.30
2017-09-24T08:21:18.461Z,30.50
2017-09-24T08:23:45.991Z,30.90
2017-09-24T08:26:24.368Z,32.10
2017-09-24T08:31:37.034Z,32.40
2017-09-24T08:34:04.579Z,32.70
2017-09-24T08:36:32.132Z,33.20
2017-09-24T08:39:01.099Z,33.40
2017-09-24T08:41:29.054Z,33.50
2017-09-24T08:43:56.827Z,33.90
2017-09-24T08:46:36.205Z,33.90
2017-09-24T08:49:06.025Z,33.80
2017-09-24T08:51:37.407Z,33.50
2017-09-24T08:54:07.131Z,33.40
2017-09-24T08:56:36.824Z,33.50
2017-09-24T08:59:04.534Z,33.90
2017-09-24T09:01:32.218Z,34.20
2017-09-24T09:03:59.792Z,34.20
2017-09-24T09:06:31.165Z,34.80
2017-09-24T09:09:00.368Z,34.90
2017-09-24T09:11:28.125Z,34.70
2017-09-24T09:13:57.695Z,35.20
2017-09-24T09:16:25.967Z,35.70
2017-09-24T09:18:54.740Z,36.00
2017-09-24T09:21:34.248Z,36.20
2017-09-24T09:24:01.807Z,36.00
2017-09-24T09:26:30.632Z,36.00
2017-09-24T09:28:59.164Z,36.10
2017-09-24T09:31:26.803Z,36.00
2017-09-24T09:33:55.218Z,34.90
2017-09-24T09:36:23.521Z,34.90
2017-09-24T09:38:54.902Z,35.20
2017-09-24T09:41:25.613Z,35.20
2017-09-24T09:43:53.251Z,35.20
2017-09-24T09:49:27.970Z,34.70
2017-09-24T09:51:55.557Z,33.40
2017-09-24T09:54:23.867Z,33.50
2017-09-24T09:56:51.427Z,33.50
2017-09-24T09:59:19.157Z,33.70
2017-09-24T10:01:46.701Z,33.50
2017-09-24T10:04:16.560Z,32.50
2017-09-24T10:06:47.095Z,32.50
2017-09-24T10:09:28.066Z,31.10
2017-09-24T10:11:55.623Z,31.00
2017-09-24T10:14:23.940Z,29.00
2017-09-24T10:16:52.286Z,28.30
2017-09-24T10:19:20.040Z,28.30
2017-09-24T10:21:48.294Z,27.60
2017-09-24T10:24:16.422Z,26.90
2017-09-24T10:26:43.997Z,26.00
2017-09-24T10:29:24.044Z,24.50
2017-09-24T10:32:09.179Z,23.80
2017-09-24T10:34:36.719Z,23.70
2017-09-24T10:37:04.251Z,23.40
2017-09-24T10:39:31.908Z,23.10
2017-09-24T10:41:59.863Z,22.80
2017-09-24T10:44:27.425Z,22.80
2017-09-24T10:46:55.761Z,22.50
2017-09-24T10:49:24.158Z,22.50
2017-09-24T10:51:51.712Z,22.70
2017-09-24T10:54:19.310Z,22.70
2017-09-24T10:56:47.623Z,23.10
2017-09-24T10:59:16.313Z,23.20
2017-09-24T11:01:43.945Z,23.10
2017-09-24T11:04:11.517Z,22.90
2017-09-24T11:06:39.086Z,22.70
2017-09-24T11:09:06.712Z,22.60
2017-09-24T11:11:36.263Z,22.30
2017-09-24T11:14:03.856Z,22.20
2017-09-24T11:16:31.498Z,22.20
2017-09-24T11:18:59.076Z,21.60
2017-09-24T11:21:26.656Z,21.30
2017-09-24T11:23:55.032Z,20.80
2017-09-24T11:26:22.582Z,20.80
2017-09-24T11:28:50.922Z,20.10
2017-09-24T11:31:18.510Z,20.10
2017-09-24T11:33:46.081Z,19.90
2017-09-24T11:36:16.265Z,20.10
2017-09-24T11:38:43.835Z,20.00
2017-09-24T11:41:11.402Z,19.90
2017-09-24T11:43:39.114Z,20.00
2017-09-24T11:46:07.496Z,20.10
2017-09-24T11:48:35.057Z,20.00
2017-09-24T11:51:02.626Z,20.00
2017-09-24T11:53:30.220Z,20.00
2017-09-24T11:55:57.771Z,20.10
2017-09-24T11:58:25.340Z,20.20
2017-09-24T12:00:52.916Z,20.30
2017-09-24T12:03:20.483Z,20.10
2017-09-24T12:05:48.048Z,19.90
2017-09-24T12:08:16.509Z,20.00
2017-09-24T12:10:44.081Z,20.10
2017-09-24T12:13:11.643Z,20.30
2017-09-24T12:15:39.231Z,20.20
2017-09-24T12:18:07.531Z,20.10
2017-09-24T12:20:35.071Z,20.10
2017-09-24T12:23:03.512Z,19.70
2017-09-24T12:25:31.077Z,19.60
2017-09-24T12:27:58.620Z,19.50
2017-09-24T12:30:26.220Z,19.50
2017-09-24T12:32:53.762Z,19.60
2017-09-24T12:35:21.296Z,19.70
2017-09-24T12:37:48.879Z,19.80
2017-09-24T12:40:17.323Z,20.10
2017-09-24T12:42:44.861Z,20.00
2017-09-24T12:45:12.423Z,20.30
2017-09-24T12:47:39.958Z,20.50
2017-09-24T12:50:08.255Z,20.60
2017-09-24T12:52:35.864Z,20.50
2017-09-24T12:55:03.399Z,20.70
2017-09-24T12:57:30.939Z,20.80
2017-09-24T12:59:58.515Z,20.90
2017-09-24T13:02:26.060Z,20.90
2017-09-24T13:04:53.604Z,20.70
2017-09-24T13:07:21.932Z,20.60
2017-09-24T13:09:49.472Z,20.60
2017-09-24T13:12:17.004Z,20.70
2017-09-24T13:14:45.059Z,20.90
2017-09-24T13:17:13.515Z,21.00
2017-09-24T13:19:41.047Z,20.90
2017-09-24T13:22:08.738Z,20.70
2017-09-24T13:24:36.293Z,20.60
2017-09-24T13:27:03.831Z,20.50
2017-09-24T13:29:31.457Z,20.50
2017-09-24T13:31:59.037Z,20.40
2017-09-24T13:34:26.592Z,20.10
2017-09-24T13:36:54.192Z,19.80
2017-09-24T13:39:21.724Z,19.70
2017-09-24T13:41:49.315Z,19.70
2017-09-24T13:44:16.875Z,19.70
2017-09-24T13:46:44.423Z,19.60
2017-09-24T13:49:11.959Z,19.40
2017-09-24T13:51:39.519Z,19.20
2017-09-24T13:54:07.059Z,19.00
2017-09-24T13:56:34.601Z,19.10
2017-09-24T13:59:02.444Z,19.10
2017-09-24T14:01:29.980Z,19.20
2017-09-24T14:03:57.511Z,19.30
2017-09-24T14:06:25.851Z,19.60
2017-09-24T14:08:53.395Z,19.60
2017-09-24T14:11:20.929Z,19.70
2017-09-24T14:13:49.251Z,19.90
2017-09-24T14:16:16.779Z,19.90
2017-09-24T14:18:44.316Z,19.90
2017-09-24T14:21:11.903Z,19.90
2017-09-24T14:23:39.468Z,19.90
2017-09-24T14:26:07.091Z,20.00
2017-09-24T14:28:34.712Z,20.10
2017-09-24T14:31:02.250Z,20.20
2017-09-24T14:33:29.800Z,20.30
2017-09-24T14:35:57.410Z,20.30
2017-09-24T14:38:25.758Z,20.30
2017-09-24T14:40:53.295Z,20.30
2017-09-24T14:43:20.919Z,20.30
2017-09-24T14:45:48.459Z,20.20
2017-09-24T14:48:17.172Z,20.10
2017-09-24T14:50:45.511Z,19.80
2017-09-24T14:53:30.164Z,19.60
2017-09-24T14:58:42.628Z,19.20
2017-09-24T15:01:10.978Z,19.10
2017-09-24T15:03:38.586Z,19.10
2017-09-24T15:06:06.152Z,19.00
2017-09-24T15:08:33.700Z,19.00
2017-09-24T15:11:01.233Z,18.90
2017-09-24T15:13:28.832Z,18.90
2017-09-24T15:15:56.364Z,18.90
2017-09-24T15:18:24.840Z,18.90
2017-09-24T15:20:53.207Z,18.80
2017-09-24T15:23:21.500Z,18.80
2017-09-24T15:25:52.206Z,18.60
2017-09-24T15:28:19.787Z,18.60
2017-09-24T15:30:47.571Z,18.60
2017-09-24T15:33:17.198Z,18.40
2017-09-24T15:35:44.814Z,18.30
2017-09-24T15:38:12.348Z,18.40
2017-09-24T15:40:39.879Z,18.30
2017-09-24T15:43:07.467Z,18.30
2017-09-24T15:45:35.012Z,18.30
2017-09-24T15:48:02.629Z,18.30
2017-09-24T15:50:30.419Z,18.30
2017-09-24T15:52:57.972Z,18.30
2017-09-24T15:55:25.514Z,18.30
2017-09-24T15:57:53.851Z,18.10
2017-09-24T16:00:21.411Z,18.10
2017-09-24T16:02:48.948Z,18.00
2017-09-24T16:05:17.333Z,17.90
2017-09-24T16:07:44.896Z,17.80
2017-09-24T16:10:12.440Z,17.70
2017-09-24T16:12:40.000Z,17.60
2017-09-24T16:15:07.595Z,17.60
2017-09-24T16:17:35.148Z,17.50
2017-09-24T16:20:02.720Z,17.50
2017-09-24T16:22:30.255Z,17.40
2017-09-24T16:24:57.812Z,17.30
2017-09-24T16:27:25.421Z,17.30
2017-09-24T16:29:53.764Z,17.20
2017-09-24T16:32:21.644Z,17.20
2017-09-24T16:34:49.253Z,17.20
2017-09-24T16:37:17.553Z,17.10
2017-09-24T16:39:45.087Z,17.10
2017-09-24T16:42:14.379Z,17.00
2017-09-24T16:44:42.682Z,16.90
2017-09-24T16:47:10.213Z,16.90
2017-09-24T16:49:38.562Z,16.70
2017-09-24T16:52:06.692Z,16.70
2017-09-24T16:54:34.231Z,16.70
2017-09-24T16:57:02.581Z,16.60
2017-09-24T16:59:30.189Z,16.60
2017-09-24T17:01:57.755Z,16.60
2017-09-24T17:04:25.322Z,16.50
2017-09-24T17:06:52.857Z,16.50
2017-09-24T17:09:20.391Z,16.50
2017-09-24T17:11:48.922Z,16.40
2017-09-24T17:14:16.640Z,16.40
2017-09-24T17:16:44.187Z,16.40
2017-09-24T17:19:11.747Z,16.40
2017-09-24T17:21:39.288Z,16.40
2017-09-24T17:24:06.835Z,16.40
2017-09-24T17:26:34.399Z,16.40
2017-09-24T17:29:01.931Z,16.40
2017-09-24T17:31:29.467Z,16.40
2017-09-24T17:33:57.863Z,16.40
2017-09-24T17:36:25.403Z,16.40
2017-09-24T17:38:53.724Z,16.50
2017-09-24T17:41:21.285Z,16.50
2017-09-24T17:43:48.819Z,16.50
2017-09-24T17:46:16.403Z,16.50
2017-09-24T17:48:45.651Z,16.50
2017-09-24T17:51:15.418Z,16.30
2017-09-24T17:53:43.147Z,16.30
2017-09-24T17:56:11.501Z,16.20
2017-09-24T17:58:39.035Z,16.20
2017-09-24T18:01:06.581Z,16.20
2017-09-24T18:03:34.143Z,16.10
2017-09-24T18:06:01.693Z,16.10
2017-09-24T18:08:29.229Z,16.00
2017-09-24T18:10:57.575Z,16.10
2017-09-24T18:13:25.120Z,16.00
2017-09-24T18:15:52.651Z,16.00
2017-09-24T18:18:21.020Z,16.00
2017-09-24T18:20:48.551Z,15.90
2017-09-24T18:23:16.523Z,16.00
2017-09-24T18:25:44.082Z,15.90
2017-09-24T18:28:12.378Z,15.90
2017-09-24T18:30:39.919Z,15.90
2017-09-24T18:33:08.247Z,15.80
2017-09-24T18:35:35.782Z,15.80
2017-09-24T18:38:03.395Z,15.70
2017-09-24T18:40:30.976Z,15.70
2017-09-24T18:42:59.283Z,15.60
2017-09-24T18:45:26.811Z,15.60
2017-09-24T18:47:54.379Z,15.50
2017-09-24T18:50:21.910Z,15.50
2017-09-24T18:52:49.447Z,15.50
2017-09-24T18:55:17.534Z,15.40
2017-09-24T18:57:45.067Z,15.40
2017-09-24T19:00:12.607Z,15.40
2017-09-24T19:02:40.196Z,15.40
2017-09-24T19:05:07.740Z,15.40
2017-09-24T19:07:35.386Z,15.30
2017-09-24T19:10:03.260Z,15.30
2017-09-24T19:12:30.872Z,15.20
2017-09-24T19:14:58.427Z,15.20
2017-09-24T19:17:26.028Z,15.20
2017-09-24T19:19:53.636Z,15.20
2017-09-24T19:22:21.174Z,15.20
2017-09-24T19:24:49.166Z,15.10
2017-09-24T19:27:16.734Z,15.10
2017-09-24T19:29:44.478Z,15.00
2017-09-24T19:32:12.058Z,14.90
2017-09-24T19:34:39.659Z,14.80
2017-09-24T19:37:08.022Z,14.60
2017-09-24T19:39:35.784Z,14.60
2017-09-24T19:42:03.411Z,14.50
2017-09-24T19:44:31.028Z,14.40
2017-09-24T19:46:58.691Z,14.40
2017-09-24T19:49:26.263Z,14.30
2017-09-24T19:51:53.958Z,14.30
2017-09-24T19:54:21.745Z,14.20
2017-09-24T19:56:50.500Z,14.00
2017-09-24T19:59:18.136Z,14.00
2017-09-24T20:01:46.491Z,14.00
2017-09-24T20:04:16.497Z,13.90
2017-09-24T20:06:44.152Z,13.90
2017-09-24T20:09:11.745Z,13.80
2017-09-24T20:11:40.051Z,13.70
2017-09-24T20:14:07.585Z,13.70
2017-09-24T20:16:35.945Z,13.60
2017-09-24T20:19:03.479Z,13.60
2017-09-24T20:21:31.166Z,13.50
2017-09-24T20:23:59.796Z,13.40
2017-09-24T20:26:28.146Z,13.40
2017-09-24T20:28:55.709Z,13.30
2017-09-24T20:31:24.900Z,13.30
2017-09-24T20:33:53.237Z,13.20
2017-09-24T20:36:20.788Z,13.20
2017-09-24T20:38:48.356Z,13.10
2017-09-24T20:41:17.241Z,13.00
2017-09-24T20:43:44.831Z,13.00
2017-09-24T20:46:12.397Z,12.90
2017-09-24T20:48:39.952Z,12.90
2017-09-24T20:51:07.626Z,12.90
2017-09-24T20:53:36.004Z,12.80
2017-09-24T20:56:03.603Z,12.80
2017-09-24T20:58:31.152Z,12.80
2017-09-24T21:00:58.725Z,12.80
2017-09-24T21:03:26.274Z,12.70
2017-09-24T21:05:53.822Z,12.70
2017-09-24T21:08:21.443Z,12.70
2017-09-24T21:10:49.245Z,12.60
2017-09-24T21:13:17.553Z,12.60
2017-09-24T21:15:45.936Z,12.60
2017-09-24T21:18:15.323Z,12.50
2017-09-24T21:20:42.859Z,12.50
2017-09-24T21:23:10.435Z,12.50
2017-09-24T21:25:37.971Z,12.40
2017-09-24T21:28:06.271Z,12.40
2017-09-24T21:30:33.833Z,12.40
2017-09-24T21:33:01.363Z,12.50
2017-09-24T21:35:28.895Z,12.40
2017-09-24T21:37:56.475Z,12.40
2017-09-24T21:40:24.007Z,12.30
2017-09-24T21:42:51.549Z,12.30
2017-09-24T21:45:19.109Z,12.30
2017-09-24T21:47:46.643Z,12.20
2017-09-24T21:50:24.528Z,12.10
2017-09-24T21:56:52.211Z,12.10
2017-09-24T21:59:20.204Z,12.00
2017-09-24T22:01:47.746Z,11.90
2017-09-24T22:04:16.435Z,11.90
2017-09-24T22:06:44.734Z,11.80
2017-09-24T22:09:12.267Z,11.80
2017-09-24T22:11:40.011Z,11.80
2017-09-24T22:14:07.557Z,11.70
2017-09-24T22:16:35.097Z,11.60
2017-09-24T22:19:02.679Z,11.60
2017-09-24T22:21:30.219Z,11.50
2017-09-24T22:23:57.755Z,11.40
2017-09-24T22:26:25.311Z,11.30
2017-09-24T22:28:53.615Z,11.30
2017-09-24T22:31:21.150Z,11.30
2017-09-24T22:33:48.707Z,11.30
2017-09-24T22:36:16.447Z,11.30
2017-09-24T22:38:43.982Z,11.30
2017-09-24T22:41:11.600Z,11.40
2017-09-24T22:43:39.141Z,11.40
2017-09-24T22:46:07.435Z,11.30
2017-09-24T22:48:34.995Z,11.20
2017-09-24T22:51:02.527Z,11.20
2017-09-24T22:53:30.056Z,11.20
2017-09-24T22:55:57.639Z,11.10
2017-09-24T22:58:25.171Z,11.10
2017-09-24T23:00:52.722Z,11.10
2017-09-24T23:03:20.299Z,11.20
2017-09-24T23:05:47.840Z,11.10
2017-09-24T23:08:17.226Z,11.10
2017-09-24T23:10:44.787Z,11.10
2017-09-24T23:13:12.323Z,11.00
2017-09-24T23:15:40.624Z,11.00
2017-09-24T23:18:08.388Z,11.00
2017-09-24T23:20:35.919Z,11.00
2017-09-24T23:23:04.217Z,10.80
2017-09-24T23:25:31.798Z,10.70
2017-09-24T23:27:59.336Z,10.70
2017-09-24T23:30:26.871Z,10.70
2017-09-24T23:32:54.428Z,10.70
2017-09-24T23:35:21.960Z,10.70
2017-09-24T23:37:49.487Z,10.70
2017-09-24T23:40:17.048Z,10.70
2017-09-24T23:42:44.579Z,10.80
2017-09-24T23:45:13.809Z,10.70
2017-09-24T23:47:41.392Z,10.60
2017-09-24T23:50:08.919Z,10.60
2017-09-24T23:52:36.464Z,10.60
2017-09-24T23:55:04.020Z,10.60
2017-09-24T23:57:32.316Z,10.50
2017-09-24T23:59:59.851Z,10.50
